Time;durP1;ratioP1;P1;durP2;ratioP2;P2;SDS_P1;SDS_P2;PMS_P1;PMS_P2;Temp;Humidity;BMP_temperature;BMP_pressure;BME280_temperature;BME280_humidity;BME280_pressure;Samples;Min_cycle;Max_cycle;Signal;HPM_P1;HPM_P2
2021/08/27 00:00:10;;;;;;;;;;;10.60;99.90;;;;;;6245784;23;19924;-91
2021/08/27 00:02:57;;;;;;;;;;;10.60;99.90;;;;;;6248046;23;19923;-89
2021/08/27 00:05:48;;;;;;;;;;;10.60;99.90;;;;;;6245560;23;19926;-90
2021/08/27 00:08:36;;;;;;;;;;;10.70;99.90;;;;;;6247384;23;19919;-92
2021/08/27 00:11:26;;;;;;;;;;;10.80;99.90;;;;;;6247527;23;19927;-89
2021/08/27 00:14:15;;;;;;;;;;;10.80;99.90;;;;;;6248278;23;19923;-91
2021/08/27 00:17:05;;;;;;;;;;;10.90;99.90;;;;;;6247515;23;19981;-88
2021/08/27 00:19:52;;;;;;;;;;;10.90;99.90;;;;;;6247700;23;19999;-89
2021/08/27 00:22:40;;;;;;;;;;;10.90;99.90;;;;;;6225660;23;20027;-89
2021/08/27 00:25:29;;;;;;;;;;;10.90;99.90;;;;;;6225493;23;20018;-89
2021/08/27 00:28:19;;;;;;;;;;;10.90;99.90;;;;;;6205161;23;20303;-92
2021/08/27 00:31:06;;;;;;;;;;;10.90;99.90;;;;;;6246130;23;19923;-90
2021/08/27 00:33:54;;;;;;;;;;;10.80;99.90;;;;;;6247483;23;20307;-90
2021/08/27 00:36:41;;;;;;;;;;;10.70;99.90;;;;;;6222794;23;19919;-89
2021/08/27 00:39:28;;;;;;;;;;;10.70;99.90;;;;;;6248299;23;19930;-90
2021/08/27 00:42:15;;;;;;;;;;;10.60;99.90;;;;;;6247773;23;20014;-90
2021/08/27 00:45:06;;;;;;;;;;;10.60;99.90;;;;;;6203994;23;19920;-91
2021/08/27 00:47:56;;;;;;;;;;;10.70;99.90;;;;;;6248058;23;19924;-88
2021/08/27 00:50:45;;;;;;;;;;;10.70;99.90;;;;;;6226785;23;20187;-91
2021/08/27 00:53:33;;;;;;;;;;;10.80;99.90;;;;;;6247458;23;19923;-91
2021/08/27 00:56:22;;;;;;;;;;;10.90;99.90;;;;;;6247931;23;19932;-90
2021/08/27 00:59:09;;;;;;;;;;;11.00;99.90;;;;;;6223432;23;20362;-89
2021/08/27 01:01:57;;;;;;;;;;;11.00;99.90;;;;;;6248623;23;20287;-90
2021/08/27 01:04:46;;;;;;;;;;;11.10;99.90;;;;;;6225999;23;20322;-89
2021/08/27 01:07:44;;;;;;;;;;;11.20;99.90;;;;;;6244034;23;19924;-87
2021/08/27 01:10:42;;;;;;;;;;;11.30;99.90;;;;;;6232627;23;19951;-89
2021/08/27 01:13:34;;;;;;;;;;;11.30;99.90;;;;;;6226703;23;20211;-89
2021/08/27 01:16:26;;;;;;;;;;;11.40;99.90;;;;;;6247556;23;19939;-88
2021/08/27 01:19:31;;;;;;;;;;;11.30;99.90;;;;;;6244720;23;19931;-90
2021/08/27 01:22:37;;;;;;;;;;;11.30;99.90;;;;;;6246481;23;19920;-88
2021/08/27 01:25:24;;;;;;;;;;;11.30;99.90;;;;;;6248606;23;19923;-89
2021/08/27 01:28:15;;;;;;;;;;;11.30;99.90;;;;;;6248132;23;19947;-90
2021/08/27 01:31:11;;;;;;;;;;;11.30;99.90;;;;;;6245736;23;19939;-89
2021/08/27 01:34:19;;;;;;;;;;;11.30;99.90;;;;;;6244654;23;20321;-88
2021/08/27 01:37:14;;;;;;;;;;;11.40;99.90;;;;;;6245074;23;20015;-91
2021/08/27 01:40:04;;;;;;;;;;;11.50;99.90;;;;;;6231764;23;19919;-91
2021/08/27 01:42:51;;;;;;;;;;;11.50;99.90;;;;;;6252016;23;19920;-90
2021/08/27 01:45:40;;;;;;;;;;;11.50;99.90;;;;;;6247623;23;19923;-90
2021/08/27 01:48:30;;;;;;;;;;;11.50;99.90;;;;;;6247829;23;19942;-90
2021/08/27 01:51:17;;;;;;;;;;;11.60;99.90;;;;;;6247267;23;19919;-89
2021/08/27 01:54:05;;;;;;;;;;;11.60;99.90;;;;;;6247811;23;20062;-89
2021/08/27 01:56:52;;;;;;;;;;;11.60;99.90;;;;;;6246243;23;19928;-89
2021/08/27 01:59:43;;;;;;;;;;;11.60;99.90;;;;;;6225069;23;19926;-90
2021/08/27 02:02:31;;;;;;;;;;;11.60;99.90;;;;;;6243819;23;19978;-89
2021/08/27 02:05:19;;;;;;;;;;;11.70;99.90;;;;;;6246289;23;19923;-89
2021/08/27 02:08:07;;;;;;;;;;;11.70;99.90;;;;;;6247589;23;19930;-92
2021/08/27 02:10:57;;;;;;;;;;;11.70;99.90;;;;;;6245795;23;19954;-90
2021/08/27 02:13:47;;;;;;;;;;;11.80;99.90;;;;;;6247500;23;19920;-90
2021/08/27 02:16:35;;;;;;;;;;;11.80;99.90;;;;;;6246797;23;19919;-89
2021/08/27 02:19:22;;;;;;;;;;;11.80;99.90;;;;;;6245327;23;19931;-89
2021/08/27 02:22:15;;;;;;;;;;;11.80;99.90;;;;;;6243888;23;20022;-90
2021/08/27 02:25:15;;;;;;;;;;;11.80;99.90;;;;;;6244820;23;19919;-91
2021/08/27 02:28:03;;;;;;;;;;;11.80;99.90;;;;;;6244254;23;19931;-89
2021/08/27 02:30:51;;;;;;;;;;;11.80;99.90;;;;;;6224386;23;19934;-88
2021/08/27 02:33:41;;;;;;;;;;;11.80;99.90;;;;;;6247091;23;20001;-87
2021/08/27 02:36:29;;;;;;;;;;;11.80;99.90;;;;;;6243616;23;19930;-91
2021/08/27 02:39:18;;;;;;;;;;;11.80;99.90;;;;;;6244675;23;19923;-91
2021/08/27 02:42:05;;;;;;;;;;;11.80;99.90;;;;;;6224210;23;19919;-90
2021/08/27 02:44:56;;;;;;;;;;;11.80;99.90;;;;;;6247096;23;19927;-89
2021/08/27 02:47:43;;;;;;;;;;;11.80;99.90;;;;;;6247153;23;19923;-90
2021/08/27 02:50:33;;;;;;;;;;;11.80;99.90;;;;;;6246242;23;19927;-89
2021/08/27 02:53:29;;;;;;;;;;;11.80;99.90;;;;;;6246861;23;19935;-88
2021/08/27 02:56:27;;;;;;;;;;;11.80;99.90;;;;;;6244650;23;19920;-89
2021/08/27 02:59:16;;;;;;;;;;;11.80;99.90;;;;;;6246702;23;19920;-90
2021/08/27 03:02:03;;;;;;;;;;;11.80;99.90;;;;;;6246406;23;20318;-90
2021/08/27 03:05:11;;;;;;;;;;;11.80;99.90;;;;;;6248276;23;19924;-91
2021/08/27 03:08:05;;;;;;;;;;;11.80;99.90;;;;;;6243914;23;20361;-88
2021/08/27 03:11:14;;;;;;;;;;;11.80;99.90;;;;;;6244476;23;19950;-90
2021/08/27 03:14:04;;;;;;;;;;;11.80;99.90;;;;;;6246466;23;20283;-90
2021/08/27 03:16:52;;;;;;;;;;;11.70;99.90;;;;;;6251357;23;19919;-91
2021/08/27 03:19:43;;;;;;;;;;;11.60;99.90;;;;;;6253004;23;19923;-92
2021/08/27 03:22:42;;;;;;;;;;;11.60;99.90;;;;;;6248644;23;20230;-92
2021/08/27 03:25:37;;;;;;;;;;;11.50;99.90;;;;;;6249959;23;19927;-91
2021/08/27 03:28:30;;;;;;;;;;;11.50;99.90;;;;;;6247969;23;20330;-91
2021/08/27 03:31:18;;;;;;;;;;;11.50;99.90;;;;;;6248842;23;19926;-92
2021/08/27 03:34:05;;;;;;;;;;;11.50;99.90;;;;;;6250481;23;20296;-90
2021/08/27 03:36:53;;;;;;;;;;;11.50;99.90;;;;;;6255155;23;19939;-92
2021/08/27 03:39:41;;;;;;;;;;;11.50;99.90;;;;;;6236788;23;19920;-91
2021/08/27 03:42:31;;;;;;;;;;;11.50;99.90;;;;;;6254970;23;19931;-92
2021/08/27 03:45:23;;;;;;;;;;;11.40;99.90;;;;;;6235482;23;20203;-91
2021/08/27 03:48:10;;;;;;;;;;;11.40;99.90;;;;;;6257501;23;19923;-91
2021/08/27 03:50:58;;;;;;;;;;;11.40;99.90;;;;;;6251352;23;19920;-92
2021/08/27 03:53:46;;;;;;;;;;;11.50;99.90;;;;;;6255068;23;19920;-91
2021/08/27 03:56:33;;;;;;;;;;;11.50;99.90;;;;;;6231763;23;19920;-93
2021/08/27 03:59:24;;;;;;;;;;;11.50;99.90;;;;;;6232951;23;19928;-91
2021/08/27 04:17:04;;;;;;;;;;;;;;;;;;;;;
2021/08/27 04:20:08;;;;;;;;;;;11.40;99.90;;;;;;6041653;23;19918;-90
2021/08/27 04:23:28;;;;;;;;;;;;;;;;;;;;;
2021/08/27 04:27:03;;;;;;;;;;;11.40;99.90;;;;;;5959299;23;20014;-91
2021/08/27 04:30:29;;;;;;;;;;;11.40;99.90;;;;;;5958719;23;19938;-92
2021/08/27 04:41:06;;;;;;;;;;;11.30;99.90;;;;;;6017170;23;19974;-91
2021/08/27 04:48:48;;;;;;;;;;;;;;;;;;;;;
2021/08/27 04:59:53;;;;;;;;;;;;;;;;;;;;;
2021/08/27 05:13:45;;;;;;;;;;;11.30;99.90;;;;;;5985220;24;19915;-92
2021/08/27 05:17:25;;;;;;;;;;;;;;;;;;;;;
2021/08/27 05:27:50;;;;;;;;;;;;;;;;;;;;;
2021/08/27 05:31:12;;;;;;;;;;;;;;;;;;;;;
2021/08/27 05:37:39;;;;;;;;;;;11.40;99.90;;;;;;5861279;24;19920;-90
2021/08/27 05:41:00;;;;;;;;;;;11.40;99.90;;;;;;6013233;23;20346;-92
2021/08/27 05:44:33;;;;;;;;;;;11.50;99.90;;;;;;6013499;23;19933;-94
2021/08/27 05:47:52;;;;;;;;;;;11.50;99.90;;;;;;6015403;23;19922;-94
2021/08/27 05:55:10;;;;;;;;;;;;;;;;;;;;;
2021/08/27 05:58:56;;;;;;;;;;;11.60;99.90;;;;;;5850039;24;19925;-94
2021/08/27 06:01:57;;;;;;;;;;;11.70;99.90;;;;;;5859506;24;19959;-88
2021/08/27 06:04:58;;;;;;;;;;;11.80;99.90;;;;;;5921383;24;19942;-91
2021/08/27 06:08:45;;;;;;;;;;;;;;;;;;;;;
2021/08/27 06:12:22;;;;;;;;;;;;;;;;;;;;;
2021/08/27 06:16:25;;;;;;;;;;;;;;;;;;;;;
2021/08/27 06:19:07;;;;;;;;;;;12.10;99.90;;;;;;5848008;24;19940;-90
2021/08/27 06:22:39;;;;;;;;;;;;;;;;;;;;;
2021/08/27 06:29:31;;;;;;;;;;;12.40;99.90;;;;;;6047535;23;19933;-91
2021/08/27 06:32:33;;;;;;;;;;;12.70;99.90;;;;;;6006697;23;19923;-89
2021/08/27 06:35:29;;;;;;;;;;;12.90;99.90;;;;;;6011682;23;19993;-90
2021/08/27 06:38:39;;;;;;;;;;;13.00;99.90;;;;;;6012819;23;20210;-92
2021/08/27 06:41:27;;;;;;;;;;;13.10;99.90;;;;;;6012818;23;19948;-90
2021/08/27 06:44:15;;;;;;;;;;;13.10;99.90;;;;;;6013967;23;19922;-91
2021/08/27 06:47:27;;;;;;;;;;;13.10;99.90;;;;;;6022111;23;19922;-92
2021/08/27 06:54:15;;;;;;;;;;;13.10;99.90;;;;;;6067885;23;20000;-92
2021/08/27 06:57:04;;;;;;;;;;;13.10;99.90;;;;;;6108986;23;20293;-91
2021/08/27 06:59:54;;;;;;;;;;;13.20;99.90;;;;;;6079705;23;20521;-90
2021/08/27 07:02:43;;;;;;;;;;;13.40;99.90;;;;;;6077561;23;19935;-92
2021/08/27 07:05:31;;;;;;;;;;;13.70;99.90;;;;;;6096181;23;19921;-90
2021/08/27 07:08:37;;;;;;;;;;;13.90;99.90;;;;;;6109843;23;19921;-88
2021/08/27 07:11:24;;;;;;;;;;;14.40;99.90;;;;;;6197446;23;20007;-88
2021/08/27 07:17:42;;;;;;;;;;;14.60;99.90;;;;;;6205024;23;19930;-88
2021/08/27 07:20:39;;;;;;;;;;;14.50;99.90;;;;;;6201481;23;19923;-91
2021/08/27 07:23:26;;;;;;;;;;;14.20;99.90;;;;;;6224778;23;19931;-92
2021/08/27 07:26:28;;;;;;;;;;;14.20;99.90;;;;;;6225180;23;19928;-92
2021/08/27 07:29:16;;;;;;;;;;;14.30;99.90;;;;;;6193551;23;19920;-91
2021/08/27 07:32:11;;;;;;;;;;;14.50;99.90;;;;;;6198668;23;19931;-90
2021/08/27 07:35:19;;;;;;;;;;;14.70;99.90;;;;;;6210421;23;20454;-91
2021/08/27 07:38:12;;;;;;;;;;;14.80;99.90;;;;;;6218600;23;20237;-91
2021/08/27 07:40:59;;;;;;;;;;;14.90;99.90;;;;;;6216097;23;19923;-89
2021/08/27 07:43:50;;;;;;;;;;;15.10;99.90;;;;;;6219444;23;20033;-94
2021/08/27 07:46:53;;;;;;;;;;;15.20;99.90;;;;;;6195452;23;19920;-92
2021/08/27 07:49:51;;;;;;;;;;;15.10;99.90;;;;;;6178221;23;19932;-91
2021/08/27 07:52:39;;;;;;;;;;;15.10;99.90;;;;;;6217141;23;19935;-91
2021/08/27 07:55:26;;;;;;;;;;;15.10;99.90;;;;;;6217215;23;19930;-88
2021/08/27 07:58:34;;;;;;;;;;;15.10;99.90;;;;;;6194245;23;20002;-87
2021/08/27 08:01:24;;;;;;;;;;;15.30;99.90;;;;;;6217825;23;19946;-92
2021/08/27 08:04:14;;;;;;;;;;;15.30;99.90;;;;;;6195839;23;19923;-90
2021/08/27 08:07:02;;;;;;;;;;;15.50;99.90;;;;;;6214602;23;19935;-89
2021/08/27 08:09:49;;;;;;;;;;;15.60;99.90;;;;;;6215055;23;19931;-91
2021/08/27 08:12:39;;;;;;;;;;;16.30;99.90;;;;;;6217656;23;19946;-90
2021/08/27 08:15:28;;;;;;;;;;;17.20;99.90;;;;;;6199152;23;19942;-94
2021/08/27 08:18:18;;;;;;;;;;;18.20;99.90;;;;;;6217990;23;20271;-91
2021/08/27 08:21:12;;;;;;;;;;;19.40;99.90;;;;;;6217362;23;19927;-90
2021/08/27 08:23:59;;;;;;;;;;;20.10;99.90;;;;;;6201268;23;19931;-92
2021/08/27 08:26:47;;;;;;;;;;;20.80;99.90;;;;;;6221928;23;19927;-91
2021/08/27 08:29:38;;;;;;;;;;;21.40;97.50;;;;;;6220440;23;19924;-92
2021/08/27 08:32:27;;;;;;;;;;;21.60;91.10;;;;;;6242251;23;20211;-90
2021/08/27 08:35:17;;;;;;;;;;;21.40;92.30;;;;;;6249391;23;19975;-92
2021/08/27 08:38:06;;;;;;;;;;;21.70;88.50;;;;;;6248296;23;20007;-89
2021/08/27 08:40:53;;;;;;;;;;;22.10;87.00;;;;;;6228267;23;19918;-91
2021/08/27 08:43:43;;;;;;;;;;;21.60;85.60;;;;;;6250863;23;20018;-93
2021/08/27 08:46:30;;;;;;;;;;;21.10;90.20;;;;;;6258608;23;20105;-91
2021/08/27 08:49:21;;;;;;;;;;;21.10;87.30;;;;;;6252103;23;19920;-92
2021/08/27 08:52:08;;;;;;;;;;;20.70;90.10;;;;;;6255266;23;19919;-92
2021/08/27 08:54:59;;;;;;;;;;;20.20;87.70;;;;;;6248934;23;20280;-91
2021/08/27 08:57:47;;;;;;;;;;;19.40;90.50;;;;;;6228900;23;19920;-90
2021/08/27 09:00:37;;;;;;;;;;;18.80;91.40;;;;;;6231416;23;19935;-91
2021/08/27 09:03:25;;;;;;;;;;;18.40;92.20;;;;;;6251654;23;20596;-90
2021/08/27 09:06:15;;;;;;;;;;;18.80;90.90;;;;;;6251747;23;19920;-91
2021/08/27 09:09:04;;;;;;;;;;;20.20;86.50;;;;;;6250607;23;19919;-92
2021/08/27 09:11:54;;;;;;;;;;;21.00;79.80;;;;;;6249051;23;20291;-89
2021/08/27 09:14:56;;;;;;;;;;;21.40;80.10;;;;;;6249343;23;19935;-92
2021/08/27 09:17:48;;;;;;;;;;;20.90;79.70;;;;;;6250041;22;19930;-90
2021/08/27 09:20:35;;;;;;;;;;;19.80;83.80;;;;;;6255110;23;19985;-91
2021/08/27 09:23:22;;;;;;;;;;;18.80;90.70;;;;;;6228540;23;19946;-91
2021/08/27 09:26:30;;;;;;;;;;;18.50;93.40;;;;;;6249465;23;20026;-91
2021/08/27 09:29:49;;;;;;;;;;;19.60;90.90;;;;;;6251134;22;19919;-89
2021/08/27 09:32:39;;;;;;;;;;;21.10;90.50;;;;;;6180638;23;20022;-91
2021/08/27 09:35:28;;;;;;;;;;;23.10;78.30;;;;;;6178041;23;19982;-90
2021/08/27 09:38:18;;;;;;;;;;;24.80;61.50;;;;;;6222743;23;19920;-92
2021/08/27 09:41:06;;;;;;;;;;;25.20;63.60;;;;;;6197303;23;20399;-90
2021/08/27 09:43:59;;;;;;;;;;;24.10;64.20;;;;;;6218644;23;19920;-90
2021/08/27 09:46:47;;;;;;;;;;;23.80;69.00;;;;;;6218219;23;19931;-90
2021/08/27 09:49:38;;;;;;;;;;;23.60;61.30;;;;;;6217893;23;19943;-90
2021/08/27 09:52:25;;;;;;;;;;;23.50;63.60;;;;;;6220024;23;20019;-89
2021/08/27 09:55:13;;;;;;;;;;;22.80;62.50;;;;;;6221126;23;20034;-89
2021/08/27 09:58:08;;;;;;;;;;;21.60;69.50;;;;;;6224389;23;19923;-91
2021/08/27 10:01:05;;;;;;;;;;;20.30;74.20;;;;;;6226946;23;19920;-89
2021/08/27 10:04:03;;;;;;;;;;;19.50;75.60;;;;;;6205843;23;19934;-89
2021/08/27 10:06:52;;;;;;;;;;;19.00;80.70;;;;;;6227971;23;19920;-90
2021/08/27 10:09:46;;;;;;;;;;;19.20;81.50;;;;;;6231332;23;19934;-91
2021/08/27 10:12:34;;;;;;;;;;;19.40;77.30;;;;;;6233878;22;19930;-92
2021/08/27 10:15:23;;;;;;;;;;;19.30;83.30;;;;;;6216981;23;20462;-91
2021/08/27 10:18:10;;;;;;;;;;;19.40;81.70;;;;;;6219291;23;19931;-90
2021/08/27 10:20:57;;;;;;;;;;;20.30;79.70;;;;;;6218031;23;19920;-90
2021/08/27 10:23:47;;;;;;;;;;;20.80;78.20;;;;;;6198887;23;19931;-90
2021/08/27 10:26:39;;;;;;;;;;;20.60;75.30;;;;;;6217257;23;19920;-91
2021/08/27 10:29:27;;;;;;;;;;;20.00;77.70;;;;;;6219616;23;19932;-91
2021/08/27 10:32:14;;;;;;;;;;;19.70;82.00;;;;;;6236215;23;19970;-92
2021/08/27 10:35:02;;;;;;;;;;;19.50;83.00;;;;;;6247123;23;19989;-88
2021/08/27 10:37:49;;;;;;;;;;;19.50;77.10;;;;;;6223160;23;19930;-90
2021/08/27 10:40:39;;;;;;;;;;;19.80;85.90;;;;;;6234566;23;19919;-89
2021/08/27 10:43:47;;;;;;;;;;;21.40;80.10;;;;;;6254802;23;19924;-92
2021/08/27 10:46:46;;;;;;;;;;;21.70;77.60;;;;;;6249036;23;20245;-88
2021/08/27 10:49:45;;;;;;;;;;;21.10;74.30;;;;;;6245155;23;20180;-90
2021/08/27 10:52:33;;;;;;;;;;;20.30;77.60;;;;;;6247213;23;20221;-92
2021/08/27 10:55:35;;;;;;;;;;;19.50;77.40;;;;;;6249297;23;19942;-90
2021/08/27 10:58:38;;;;;;;;;;;18.80;82.20;;;;;;6248059;23;19919;-90
2021/08/27 11:01:30;;;;;;;;;;;18.20;87.00;;;;;;6225113;23;19920;-89
2021/08/27 11:04:20;;;;;;;;;;;19.00;90.00;;;;;;6249113;23;20183;-90
2021/08/27 11:07:13;;;;;;;;;;;21.20;78.40;;;;;;6248607;23;19923;-94
2021/08/27 11:10:10;;;;;;;;;;;22.90;68.60;;;;;;6248305;23;19920;-94
2021/08/27 11:13:17;;;;;;;;;;;24.90;61.00;;;;;;6230330;23;20053;-91
2021/08/27 11:16:19;;;;;;;;;;;25.80;56.50;;;;;;6248843;23;19994;-91
2021/08/27 11:23:05;;;;;;;;;;;25.40;54.80;;;;;;6156864;23;19907;-91
2021/08/27 11:26:04;;;;;;;;;;;24.90;57.60;;;;;;6249796;23;19927;-92
2021/08/27 11:29:16;;;;;;;;;;;24.70;56.00;;;;;;6248074;23;20279;-92
2021/08/27 11:32:12;;;;;;;;;;;24.30;53.40;;;;;;6246268;23;19919;-89
2021/08/27 11:35:10;;;;;;;;;;;23.30;58.20;;;;;;6248909;23;19963;-88
2021/08/27 11:38:05;;;;;;;;;;;21.90;61.50;;;;;;6248879;22;20270;-88
2021/08/27 11:40:52;;;;;;;;;;;20.80;66.60;;;;;;6245441;23;20010;-88
2021/08/27 11:43:44;;;;;;;;;;;20.10;72.50;;;;;;6246745;23;19931;-90
2021/08/27 11:46:39;;;;;;;;;;;19.70;76.70;;;;;;6247352;23;19946;-89
2021/08/27 11:49:29;;;;;;;;;;;19.20;78.30;;;;;;6247928;23;19930;-94
2021/08/27 11:52:29;;;;;;;;;;;19.10;77.10;;;;;;6246815;23;20239;-88
2021/08/27 11:55:19;;;;;;;;;;;19.20;80.50;;;;;;6249683;23;19920;-90
2021/08/27 11:58:10;;;;;;;;;;;19.70;73.90;;;;;;6247117;23;19931;-89
2021/08/27 12:00:58;;;;;;;;;;;20.80;76.20;;;;;;6250347;23;19947;-91
2021/08/27 12:03:45;;;;;;;;;;;22.50;70.40;;;;;;6209691;23;19999;-90
2021/08/27 12:06:32;;;;;;;;;;;23.40;68.10;;;;;;6255701;23;19946;-91
2021/08/27 12:09:20;;;;;;;;;;;23.60;64.30;;;;;;6227980;23;19924;-89
2021/08/27 12:12:29;;;;;;;;;;;23.50;66.50;;;;;;6250542;23;19919;-92
2021/08/27 12:15:20;;;;;;;;;;;24.40;64.60;;;;;;6250208;23;20050;-92
2021/08/27 12:18:18;;;;;;;;;;;25.10;61.60;;;;;;6247585;23;19946;-90
2021/08/27 12:21:05;;;;;;;;;;;24.90;60.30;;;;;;6247841;23;20319;-90
2021/08/27 12:23:59;;;;;;;;;;;25.60;60.30;;;;;;6237234;23;19923;-91
2021/08/27 12:26:47;;;;;;;;;;;26.30;54.40;;;;;;6251120;23;20302;-92
2021/08/27 12:29:36;;;;;;;;;;;27.30;57.00;;;;;;6225498;23;19919;-91
2021/08/27 12:32:34;;;;;;;;;;;28.70;50.70;;;;;;6213244;23;19953;-89
2021/08/27 12:35:27;;;;;;;;;;;29.70;46.80;;;;;;6219672;23;19928;-90
2021/08/27 12:38:17;;;;;;;;;;;29.60;43.10;;;;;;6219263;23;19924;-88
2021/08/27 12:41:14;;;;;;;;;;;29.60;48.70;;;;;;6221180;23;19982;-90
2021/08/27 12:44:11;;;;;;;;;;;29.90;44.30;;;;;;6216286;23;19920;-90
2021/08/27 12:46:59;;;;;;;;;;;29.90;44.60;;;;;;6196064;23;19923;-90
2021/08/27 12:50:03;;;;;;;;;;;30.40;45.30;;;;;;6217105;23;19924;-90
2021/08/27 12:53:00;;;;;;;;;;;30.00;45.50;;;;;;6195071;23;19955;-90
2021/08/27 12:55:47;;;;;;;;;;;29.10;45.70;;;;;;6219318;23;19974;-92
2021/08/27 12:58:40;;;;;;;;;;;28.80;47.30;;;;;;6219841;23;19931;-89
2021/08/27 13:01:30;;;;;;;;;;;29.30;45.70;;;;;;6216387;23;19920;-90
2021/08/27 13:04:22;;;;;;;;;;;28.40;47.70;;;;;;6218378;23;20003;-89
2021/08/27 13:07:30;;;;;;;;;;;28.70;46.80;;;;;;6196640;23;20260;-89
2021/08/27 13:10:22;;;;;;;;;;;29.40;45.40;;;;;;6215885;23;19920;-88
2021/08/27 13:13:24;;;;;;;;;;;29.70;43.70;;;;;;6216286;23;19927;-91
2021/08/27 13:16:17;;;;;;;;;;;29.90;41.90;;;;;;6215193;23;19939;-89
2021/08/27 13:19:04;;;;;;;;;;;29.40;42.20;;;;;;6217046;23;19989;-90
2021/08/27 13:21:52;;;;;;;;;;;29.40;44.30;;;;;;6218946;23;20003;-92
2021/08/27 13:24:39;;;;;;;;;;;29.80;41.00;;;;;;6218271;23;19920;-89
2021/08/27 13:27:26;;;;;;;;;;;28.90;43.90;;;;;;6218403;23;20195;-89
2021/08/27 13:30:14;;;;;;;;;;;28.30;47.20;;;;;;6218317;23;20408;-90
2021/08/27 13:33:04;;;;;;;;;;;27.90;47.30;;;;;;6200069;23;19927;-91
2021/08/27 13:35:51;;;;;;;;;;;27.20;47.70;;;;;;6198909;23;19927;-90
2021/08/27 13:38:52;;;;;;;;;;;26.70;48.60;;;;;;6201136;23;19931;-89
2021/08/27 13:41:42;;;;;;;;;;;26.10;50.20;;;;;;6197334;23;19939;-91
2021/08/27 13:44:32;;;;;;;;;;;25.10;51.10;;;;;;6217964;23;19920;-90
2021/08/27 13:47:23;;;;;;;;;;;23.90;54.30;;;;;;6196650;23;19924;-91
2021/08/27 13:50:11;;;;;;;;;;;23.40;56.60;;;;;;6220624;23;19920;-90
2021/08/27 13:52:59;;;;;;;;;;;24.30;54.90;;;;;;6219218;23;19942;-90
2021/08/27 13:55:48;;;;;;;;;;;25.50;54.00;;;;;;6219245;23;19920;-90
2021/08/27 13:58:35;;;;;;;;;;;27.00;50.20;;;;;;6199120;23;19935;-89
2021/08/27 14:01:32;;;;;;;;;;;28.20;45.70;;;;;;6220509;23;19931;-91
2021/08/27 14:04:22;;;;;;;;;;;27.50;49.80;;;;;;6226347;23;19924;-90
2021/08/27 14:07:13;;;;;;;;;;;27.70;47.60;;;;;;6226292;23;19924;-91
2021/08/27 14:10:05;;;;;;;;;;;27.20;49.00;;;;;;6178053;23;19920;-90
2021/08/27 14:12:55;;;;;;;;;;;26.30;48.40;;;;;;6217004;23;19935;-90
2021/08/27 14:15:45;;;;;;;;;;;25.60;48.10;;;;;;6218404;23;19924;-88
2021/08/27 14:18:34;;;;;;;;;;;25.30;52.90;;;;;;6216705;23;19947;-92
2021/08/27 14:21:22;;;;;;;;;;;26.20;49.70;;;;;;6217911;23;19987;-91
2021/08/27 14:24:11;;;;;;;;;;;26.90;45.70;;;;;;6195737;23;19924;-90
2021/08/27 14:26:58;;;;;;;;;;;26.60;47.80;;;;;;6193659;23;19920;-90
2021/08/27 14:29:45;;;;;;;;;;;27.10;49.40;;;;;;6220055;23;19935;-91
2021/08/27 14:32:45;;;;;;;;;;;28.20;46.30;;;;;;6197446;23;19920;-92
2021/08/27 14:35:34;;;;;;;;;;;29.20;42.90;;;;;;6218642;23;19931;-89
2021/08/27 14:38:24;;;;;;;;;;;29.40;41.90;;;;;;6198180;23;19920;-91
2021/08/27 14:41:14;;;;;;;;;;;29.30;42.90;;;;;;6221875;23;19920;-89
2021/08/27 14:44:02;;;;;;;;;;;29.80;42.10;;;;;;6217063;23;19927;-91
2021/08/27 14:46:49;;;;;;;;;;;30.20;40.30;;;;;;6218117;23;19920;-89
2021/08/27 14:49:37;;;;;;;;;;;29.80;41.00;;;;;;6218227;23;19992;-91
2021/08/27 14:52:24;;;;;;;;;;;29.60;42.70;;;;;;6219072;23;19947;-91
2021/08/27 14:55:12;;;;;;;;;;;30.20;40.40;;;;;;6216538;23;19947;-92
2021/08/27 14:58:01;;;;;;;;;;;30.50;39.60;;;;;;6218085;23;19920;-91
2021/08/27 15:00:49;;;;;;;;;;;30.60;42.70;;;;;;6199610;23;19924;-91
2021/08/27 15:03:36;;;;;;;;;;;29.50;43.70;;;;;;6205524;23;19920;-92
2021/08/27 15:06:25;;;;;;;;;;;28.40;46.80;;;;;;6230165;23;19924;-89
2021/08/27 15:09:15;;;;;;;;;;;27.90;47.10;;;;;;6228084;23;19939;-91
2021/08/27 15:12:02;;;;;;;;;;;28.20;46.70;;;;;;6237005;23;19908;-91
2021/08/27 15:14:49;;;;;;;;;;;28.40;46.70;;;;;;6238286;23;19999;-92
2021/08/27 15:17:36;;;;;;;;;;;28.40;45.10;;;;;;6231058;23;19920;-91
2021/08/27 15:20:28;;;;;;;;;;;28.00;46.00;;;;;;6230589;23;19924;-91
2021/08/27 15:23:23;;;;;;;;;;;28.00;44.80;;;;;;6229974;23;19928;-91
2021/08/27 15:26:10;;;;;;;;;;;27.60;45.10;;;;;;6222540;23;19923;-90
2021/08/27 15:28:57;;;;;;;;;;;26.10;49.50;;;;;;6226599;23;19920;-91
2021/08/27 15:31:44;;;;;;;;;;;25.30;51.50;;;;;;6233411;23;20021;-90
2021/08/27 15:34:34;;;;;;;;;;;25.00;50.60;;;;;;6235533;22;19935;-93
2021/08/27 15:37:24;;;;;;;;;;;23.90;54.80;;;;;;6251671;23;19960;-91
2021/08/27 15:40:11;;;;;;;;;;;24.10;52.60;;;;;;6255904;22;19942;-92
2021/08/27 15:42:58;;;;;;;;;;;23.80;52.60;;;;;;6257709;22;19935;-87
2021/08/27 15:45:46;;;;;;;;;;;22.90;56.10;;;;;;6254924;23;19919;-90
2021/08/27 15:48:33;;;;;;;;;;;22.20;57.80;;;;;;6253474;23;19924;-88
2021/08/27 15:51:23;;;;;;;;;;;21.70;58.40;;;;;;6252268;23;20007;-91
2021/08/27 15:54:15;;;;;;;;;;;21.50;61.50;;;;;;6254056;23;20117;-92
2021/08/27 15:57:02;;;;;;;;;;;21.00;63.90;;;;;;6209968;23;19919;-91
2021/08/27 15:59:50;;;;;;;;;;;20.60;62.00;;;;;;6255331;23;19973;-90
2021/08/27 16:02:37;;;;;;;;;;;20.30;63.40;;;;;;6254550;23;19946;-90
2021/08/27 16:05:24;;;;;;;;;;;20.20;64.30;;;;;;6217564;23;19919;-90
2021/08/27 16:08:14;;;;;;;;;;;20.40;63.70;;;;;;6239292;23;19931;-90
2021/08/27 16:11:01;;;;;;;;;;;20.30;64.60;;;;;;6264208;22;19931;-93
2021/08/27 16:13:53;;;;;;;;;;;19.90;63.80;;;;;;6267380;22;19958;-93
2021/08/27 16:16:43;;;;;;;;;;;19.60;67.30;;;;;;6269910;22;19914;-92
2021/08/27 16:19:30;;;;;;;;;;;19.20;70.10;;;;;;6270143;22;19931;-90
2021/08/27 16:22:21;;;;;;;;;;;18.50;74.20;;;;;;6254666;23;19919;-91
2021/08/27 16:25:09;;;;;;;;;;;18.70;73.40;;;;;;6230479;23;19995;-92
2021/08/27 16:27:56;;;;;;;;;;;19.50;69.90;;;;;;6254995;23;19927;-93
2021/08/27 16:30:45;;;;;;;;;;;20.30;66.70;;;;;;6254419;23;20235;-94
2021/08/27 16:33:33;;;;;;;;;;;20.60;66.40;;;;;;6223762;23;19925;-93
2021/08/27 16:36:20;;;;;;;;;;;20.50;64.10;;;;;;6223298;23;19942;-91
2021/08/27 16:39:07;;;;;;;;;;;20.00;68.30;;;;;;6226878;23;19920;-94
2021/08/27 16:41:55;;;;;;;;;;;19.50;68.10;;;;;;6224134;23;20043;-92
2021/08/27 16:44:44;;;;;;;;;;;18.80;72.20;;;;;;6230174;23;19950;-92
2021/08/27 16:47:31;;;;;;;;;;;18.60;72.10;;;;;;6232476;23;19923;-93
2021/08/27 16:50:24;;;;;;;;;;;18.30;72.80;;;;;;6223009;23;19985;-92
2021/08/27 16:53:11;;;;;;;;;;;18.10;74.70;;;;;;6225827;23;19980;-92
2021/08/27 16:56:05;;;;;;;;;;;18.00;76.40;;;;;;6198191;23;20058;-95
2021/08/27 16:58:55;;;;;;;;;;;17.90;75.20;;;;;;6219492;23;19939;-91
2021/08/27 17:01:42;;;;;;;;;;;17.70;76.20;;;;;;6198123;23;19926;-94
2021/08/27 17:04:31;;;;;;;;;;;17.50;76.70;;;;;;6196647;23;20007;-93
2021/08/27 17:07:19;;;;;;;;;;;17.30;75.80;;;;;;6197856;23;19962;-94
2021/08/27 17:10:07;;;;;;;;;;;17.20;80.80;;;;;;6221190;23;19920;-94
2021/08/27 17:12:57;;;;;;;;;;;17.20;77.40;;;;;;6218726;23;19928;-92
2021/08/27 17:15:44;;;;;;;;;;;17.20;82.80;;;;;;6223635;23;19942;-89
2021/08/27 17:18:31;;;;;;;;;;;17.10;82.80;;;;;;6199886;23;19924;-90
2021/08/27 17:21:22;;;;;;;;;;;17.00;83.50;;;;;;6221465;23;20011;-89
2021/08/27 17:24:09;;;;;;;;;;;16.90;83.90;;;;;;6220532;23;20007;-90
2021/08/27 17:26:59;;;;;;;;;;;16.70;84.90;;;;;;6222784;23;19978;-93
2021/08/27 17:29:46;;;;;;;;;;;16.50;87.00;;;;;;6222705;23;19992;-90
2021/08/27 17:32:36;;;;;;;;;;;16.40;87.10;;;;;;6243013;23;20400;-90
2021/08/27 17:35:25;;;;;;;;;;;16.30;88.60;;;;;;6252444;23;19928;-91
2021/08/27 17:38:15;;;;;;;;;;;16.20;90.80;;;;;;6258647;23;19920;-91
2021/08/27 17:41:02;;;;;;;;;;;16.20;89.30;;;;;;6254915;23;19919;-93
2021/08/27 17:43:51;;;;;;;;;;;16.00;90.70;;;;;;6253393;23;20270;-90
2021/08/27 17:46:40;;;;;;;;;;;15.90;90.30;;;;;;6254152;23;19934;-90
2021/08/27 17:49:27;;;;;;;;;;;15.90;91.40;;;;;;6251992;23;20302;-89
2021/08/27 17:52:17;;;;;;;;;;;15.80;91.30;;;;;;6228469;23;19919;-90
2021/08/27 17:55:05;;;;;;;;;;;15.70;92.40;;;;;;6248694;23;20003;-91
2021/08/27 17:57:52;;;;;;;;;;;15.50;93.40;;;;;;6252413;23;19919;-90
2021/08/27 18:00:39;;;;;;;;;;;15.50;93.60;;;;;;6252563;23;19920;-92
2021/08/27 18:03:31;;;;;;;;;;;15.50;94.10;;;;;;6230153;23;19924;-90
2021/08/27 18:06:18;;;;;;;;;;;15.40;94.80;;;;;;6247708;23;19920;-90
2021/08/27 18:09:06;;;;;;;;;;;15.30;95.20;;;;;;6251323;23;19949;-90
2021/08/27 18:11:53;;;;;;;;;;;15.40;96.40;;;;;;6250588;23;19924;-92
2021/08/27 18:14:43;;;;;;;;;;;15.40;96.80;;;;;;6230053;23;19923;-91